Time;durP1;ratioP1;P1;durP2;ratioP2;P2;SDS_P1;SDS_P2;PMS_P1;PMS_P2;Temp;Humidity;BMP_temperature;BMP_pressure;BME280_temperature;BME280_humidity;BME280_pressure;Samples;Min_cycle;Max_cycle;Signal;HPM_P1;HPM_P2
2022/05/08 00:00:07;;;;;;;15.73;3.55;;;8.90;99.90;;;;;;5043886;28;20443;-75
2022/05/08 00:02:34;;;;;;;15.90;3.55;;;8.80;99.90;;;;;;5030710;28;20034;-75
2022/05/08 00:04:59;;;;;;;17.77;3.92;;;8.70;99.90;;;;;;5047611;28;20032;-75
2022/05/08 00:07:25;;;;;;;19.15;4.78;;;8.70;99.90;;;;;;5048930;28;20079;-75
2022/05/08 00:09:50;;;;;;;16.42;3.60;;;8.70;99.90;;;;;;5049229;28;20044;-75
2022/05/08 00:12:17;;;;;;;14.88;3.70;;;8.70;99.90;;;;;;5048914;28;20036;-75
2022/05/08 00:14:43;;;;;;;14.00;4.13;;;8.70;99.90;;;;;;5048943;28;20530;-75
2022/05/08 00:17:13;;;;;;;17.80;3.67;;;8.70;99.90;;;;;;5035394;28;20496;-75
2022/05/08 00:19:40;;;;;;;16.60;3.80;;;8.60;99.90;;;;;;5049335;28;20364;-74
2022/05/08 00:22:06;;;;;;;12.98;3.72;;;8.50;99.90;;;;;;5049191;28;20094;-74
2022/05/08 00:24:32;;;;;;;14.93;3.55;;;8.50;99.90;;;;;;5048351;28;20056;-74
2022/05/08 00:26:58;;;;;;;13.88;3.75;;;8.40;99.90;;;;;;5036847;28;20049;-74
2022/05/08 00:29:23;;;;;;;16.90;4.15;;;8.30;99.90;;;;;;5048075;28;20036;-75
2022/05/08 00:31:49;;;;;;;18.08;4.13;;;8.20;99.90;;;;;;5029327;28;20143;-75
2022/05/08 00:34:14;;;;;;;14.93;4.07;;;8.10;99.90;;;;;;5029848;28;20371;-74
2022/05/08 00:36:40;;;;;;;19.55;4.03;;;7.90;99.90;;;;;;5041201;28;20045;-75
2022/05/08 00:39:06;;;;;;;18.42;4.22;;;7.90;99.90;;;;;;5048314;28;20037;-75
2022/05/08 00:41:31;;;;;;;12.00;3.38;;;8.00;99.90;;;;;;5048459;28;20115;-74
2022/05/08 00:43:57;;;;;;;15.85;3.33;;;8.10;99.90;;;;;;5048141;28;20441;-75
2022/05/08 00:46:22;;;;;;;13.90;3.88;;;8.10;99.90;;;;;;5043876;28;20036;-75
2022/05/08 00:48:48;;;;;;;15.30;3.63;;;8.10;99.90;;;;;;5048281;28;20095;-75
2022/05/08 00:51:16;;;;;;;11.93;3.53;;;8.00;99.90;;;;;;5049416;28;20037;-75
2022/05/08 00:53:51;;;;;;;11.00;3.45;;;8.10;99.90;;;;;;5029913;28;20576;-75
2022/05/08 00:56:18;;;;;;;15.13;3.53;;;8.10;99.90;;;;;;5046534;28;20040;-75
2022/05/08 00:58:46;;;;;;;13.02;3.60;;;8.10;99.90;;;;;;5043500;28;20495;-75
2022/05/08 01:01:13;;;;;;;13.70;3.38;;;8.10;99.90;;;;;;5047422;28;20387;-75
2022/05/08 01:03:39;;;;;;;15.27;3.85;;;8.10;99.90;;;;;;5047580;28;20041;-75
2022/05/08 01:06:07;;;;;;;12.63;3.00;;;8.00;99.90;;;;;;5064690;28;20086;-75
2022/05/08 01:08:34;;;;;;;14.45;3.53;;;8.00;99.90;;;;;;5048787;28;20033;-75
2022/05/08 01:11:05;;;;;;;10.65;3.22;;;8.00;99.90;;;;;;5047317;28;20447;-75
2022/05/08 01:13:31;;;;;;;15.40;3.10;;;8.00;99.90;;;;;;5046162;28;20148;-75
2022/05/08 01:15:57;;;;;;;12.30;3.35;;;8.00;99.90;;;;;;5034727;28;20041;-75
2022/05/08 01:18:22;;;;;;;10.68;2.97;;;8.10;99.90;;;;;;5047471;28;20048;-75
2022/05/08 01:20:49;;;;;;;11.60;3.60;;;7.90;99.90;;;;;;5045462;28;20056;-74
2022/05/08 01:23:15;;;;;;;9.05;3.20;;;8.00;99.90;;;;;;5039297;28;20033;-75
2022/05/08 01:25:51;;;;;;;11.68;3.13;;;7.80;99.90;;;;;;5047721;28;20110;-75
2022/05/08 01:28:18;;;;;;;14.80;3.40;;;7.90;99.90;;;;;;5046915;28;20513;-75
2022/05/08 01:30:45;;;;;;;13.55;3.50;;;7.80;99.90;;;;;;5038295;28;20038;-75
2022/05/08 01:33:11;;;;;;;10.63;2.97;;;7.70;99.90;;;;;;5040949;28;20046;-75
2022/05/08 01:35:37;;;;;;;14.15;3.05;;;7.70;99.90;;;;;;5050666;28;20182;-75
2022/05/08 01:38:07;;;;;;;13.32;3.08;;;7.60;99.90;;;;;;5051929;28;20057;-75
2022/05/08 01:40:33;;;;;;;10.82;3.08;;;7.50;99.90;;;;;;5050936;28;20047;-75
2022/05/08 01:42:59;;;;;;;10.80;3.08;;;7.50;99.90;;;;;;5051277;28;20029;-75
2022/05/08 01:45:24;;;;;;;17.48;3.47;;;7.40;99.90;;;;;;5050288;28;20040;-75
2022/05/08 01:50:36;;;;;;;13.15;3.25;;;7.40;99.90;;;;;;5051866;28;20041;-74
2022/05/08 01:53:02;;;;;;;12.75;3.22;;;7.40;99.90;;;;;;5035092;28;20039;-75
2022/05/08 01:55:28;;;;;;;15.48;3.45;;;7.30;99.90;;;;;;5044275;28;20037;-75
2022/05/08 01:57:53;;;;;;;12.15;3.20;;;7.20;99.90;;;;;;5049215;28;20032;-75
2022/05/08 02:00:20;;;;;;;12.70;3.83;;;7.10;99.90;;;;;;5042672;28;20033;-75
2022/05/08 02:02:48;;;;;;;14.63;3.72;;;7.00;99.90;;;;;;5040874;28;20033;-74
2022/05/08 02:05:16;;;;;;;9.40;3.00;;;7.00;99.90;;;;;;5047228;28;20037;-75
2022/05/08 02:07:43;;;;;;;11.00;2.78;;;7.00;99.90;;;;;;5052432;28;20041;-75
2022/05/08 02:10:09;;;;;;;11.23;3.53;;;7.10;99.90;;;;;;5051594;28;20140;-74
2022/05/08 02:12:34;;;;;;;6.40;2.90;;;7.00;99.90;;;;;;5050555;28;20127;-74
2022/05/08 02:15:00;;;;;;;12.13;3.38;;;6.90;99.90;;;;;;5050097;28;20039;-75
2022/05/08 02:17:26;;;;;;;12.40;3.05;;;6.90;99.90;;;;;;5049764;28;20037;-74
2022/05/08 02:19:51;;;;;;;12.10;3.38;;;7.00;99.90;;;;;;5050942;28;20083;-75
2022/05/08 02:22:17;;;;;;;12.15;3.35;;;7.10;99.90;;;;;;5044213;28;20041;-75
2022/05/08 02:24:42;;;;;;;9.55;3.10;;;7.00;99.90;;;;;;5051617;28;20487;-75
2022/05/08 02:27:08;;;;;;;13.90;4.47;;;7.00;99.90;;;;;;5051271;28;20106;-75
2022/05/08 02:29:33;;;;;;;10.32;3.05;;;7.00;99.90;;;;;;5033735;28;20479;-75
2022/05/08 02:31:59;;;;;;;16.75;3.50;;;7.00;99.90;;;;;;5051746;28;20090;-74
2022/05/08 02:34:24;;;;;;;10.35;3.17;;;6.90;99.90;;;;;;5034571;28;20045;-74
2022/05/08 02:36:50;;;;;;;12.25;3.05;;;6.80;99.90;;;;;;5043685;28;20086;-74
2022/05/08 02:39:15;;;;;;;10.95;2.75;;;6.70;99.90;;;;;;5050991;28;20037;-75
2022/05/08 02:41:41;;;;;;;15.10;3.70;;;6.50;99.90;;;;;;5050734;28;20518;-74
2022/05/08 02:44:06;;;;;;;11.85;3.22;;;6.50;99.90;;;;;;5049980;28;20036;-74
2022/05/08 02:46:32;;;;;;;9.38;2.80;;;6.40;99.90;;;;;;5049288;28;20056;-75
2022/05/08 02:48:57;;;;;;;8.40;3.13;;;6.30;99.90;;;;;;5046893;28;20131;-75
2022/05/08 02:51:23;;;;;;;9.07;3.00;;;6.30;99.90;;;;;;5045187;28;20041;-74
2022/05/08 02:53:48;;;;;;;12.38;2.88;;;6.30;99.90;;;;;;5043057;28;20095;-75
2022/05/08 02:58:58;;;;;;;9.60;3.03;;;6.40;99.90;;;;;;5045494;28;20128;-75
2022/05/08 03:01:24;;;;;;;10.68;3.22;;;6.40;99.90;;;;;;5034368;28;20120;-74
2022/05/08 03:03:49;;;;;;;8.55;2.85;;;6.30;99.90;;;;;;5033670;28;20036;-74
2022/05/08 03:06:15;;;;;;;8.15;3.13;;;6.30;99.90;;;;;;5050732;28;20120;-74
2022/05/08 03:08:40;;;;;;;7.60;3.08;;;6.30;99.90;;;;;;5040187;28;20072;-75
2022/05/08 03:13:50;;;;;;;5.97;2.40;;;6.30;99.90;;;;;;5041641;28;20040;-74
2022/05/08 03:16:17;;;;;;;8.18;3.03;;;6.20;99.90;;;;;;5049412;28;20041;-75
2022/05/08 03:18:45;;;;;;;7.32;2.90;;;6.10;99.90;;;;;;5050173;28;20086;-74
2022/05/08 03:21:12;;;;;;;10.32;3.22;;;6.00;99.90;;;;;;5035901;28;20037;-74
2022/05/08 03:23:43;;;;;;;7.47;3.13;;;5.90;99.90;;;;;;5031512;28;20085;-74
2022/05/08 03:26:09;;;;;;;8.70;3.10;;;5.80;99.90;;;;;;5043821;28;20513;-74
2022/05/08 03:28:38;;;;;;;12.95;4.10;;;5.80;99.90;;;;;;5066862;28;20041;-74
2022/05/08 03:31:04;;;;;;;10.32;3.75;;;5.70;99.90;;;;;;5049479;28;20044;-74
2022/05/08 03:33:31;;;;;;;7.90;3.55;;;5.80;99.90;;;;;;5049614;28;20033;-74
2022/05/08 03:35:57;;;;;;;8.57;3.47;;;5.80;99.90;;;;;;5049347;28;20040;-74
2022/05/08 03:38:23;;;;;;;8.73;3.25;;;5.70;99.90;;;;;;5050268;28;20041;-74
2022/05/08 03:40:49;;;;;;;8.07;3.40;;;5.80;99.90;;;;;;5017146;28;20029;-74
2022/05/08 03:43:15;;;;;;;9.68;3.85;;;5.80;99.90;;;;;;5049498;28;20527;-74
2022/05/08 03:45:40;;;;;;;7.05;2.92;;;5.70;99.90;;;;;;5048047;28;20188;-74
2022/05/08 03:48:06;;;;;;;8.20;3.78;;;5.70;99.90;;;;;;5050723;28;20045;-74
2022/05/08 03:50:32;;;;;;;8.70;3.38;;;5.60;99.90;;;;;;5032148;28;20064;-74
2022/05/08 03:52:59;;;;;;;7.28;3.15;;;5.60;99.90;;;;;;5044005;28;20049;-74
2022/05/08 03:55:25;;;;;;;11.25;3.33;;;5.60;99.90;;;;;;5032399;28;20037;-74
2022/05/08 03:57:51;;;;;;;8.38;3.13;;;5.60;99.90;;;;;;5048360;28;20044;-74
2022/05/08 04:00:17;;;;;;;8.13;3.08;;;5.60;99.90;;;;;;5034376;28;20030;-74
2022/05/08 04:02:43;;;;;;;10.88;3.08;;;5.60;99.90;;;;;;5030336;28;20083;-74
2022/05/08 04:05:10;;;;;;;7.65;3.20;;;5.60;99.90;;;;;;5048414;28;20045;-74
2022/05/08 04:07:37;;;;;;;10.65;3.00;;;5.60;99.90;;;;;;5048608;28;20380;-74
2022/05/08 04:10:03;;;;;;;8.02;3.17;;;5.50;99.90;;;;;;5049485;28;20043;-74
2022/05/08 04:12:28;;;;;;;7.90;3.00;;;5.50;99.90;;;;;;5048267;28;20116;-74
2022/05/08 04:14:54;;;;;;;12.43;3.80;;;5.50;99.90;;;;;;5032385;28;20036;-73
2022/05/08 04:17:20;;;;;;;6.10;3.08;;;5.40;99.90;;;;;;5046847;28;20573;-74
2022/05/08 04:19:48;;;;;;;9.40;3.10;;;5.50;99.90;;;;;;5046547;28;20033;-74
2022/05/08 04:24:58;;;;;;;9.55;3.58;;;5.60;99.90;;;;;;5043260;28;20040;-74
2022/05/08 04:27:24;;;;;;;8.60;3.47;;;5.60;99.90;;;;;;5047285;28;20116;-74
2022/05/08 04:29:49;;;;;;;10.15;3.28;;;5.60;99.90;;;;;;5046983;28;20045;-74
2022/05/08 04:32:15;;;;;;;7.72;3.33;;;5.60;99.90;;;;;;5030262;28;20041;-74
2022/05/08 04:34:41;;;;;;;10.10;3.50;;;5.50;99.90;;;;;;5041176;28;20060;-74
2022/05/08 04:37:07;;;;;;;7.63;3.60;;;5.50;99.90;;;;;;5032551;28;20513;-74
2022/05/08 04:39:32;;;;;;;7.45;3.58;;;5.60;99.90;;;;;;5031605;28;20047;-74
2022/05/08 04:41:59;;;;;;;10.02;3.53;;;5.70;99.90;;;;;;5041896;28;20037;-74
2022/05/08 04:44:24;;;;;;;8.93;3.38;;;5.80;99.90;;;;;;5048154;28;20041;-74
2022/05/08 04:46:50;;;;;;;7.78;3.33;;;5.90;99.90;;;;;;5037137;28;20064;-74
2022/05/08 04:49:16;;;;;;;8.98;3.63;;;6.10;99.90;;;;;;5049336;28;20037;-73
2022/05/08 04:51:41;;;;;;;7.75;3.08;;;6.00;99.90;;;;;;5039722;28;20036;-74
2022/05/08 04:54:07;;;;;;;8.15;3.70;;;6.00;99.90;;;;;;5048088;28;20037;-74
2022/05/08 04:56:32;;;;;;;10.10;3.50;;;6.10;99.90;;;;;;5039677;28;20037;-74
2022/05/08 04:58:58;;;;;;;7.53;3.40;;;6.20;99.90;;;;;;5013487;28;20111;-74
2022/05/08 05:01:24;;;;;;;9.60;3.30;;;6.30;99.90;;;;;;5048538;28;20404;-74
2022/05/08 05:03:50;;;;;;;12.18;3.90;;;6.50;99.90;;;;;;5046153;28;20090;-74
2022/05/08 05:06:16;;;;;;;8.38;3.10;;;6.60;99.90;;;;;;5048712;28;20052;-74
2022/05/08 05:08:42;;;;;;;8.27;3.45;;;6.60;99.90;;;;;;5053478;28;20499;-74
2022/05/08 05:11:09;;;;;;;5.70;3.30;;;6.70;99.90;;;;;;5054025;28;20044;-74
2022/05/08 05:13:38;;;;;;;9.88;3.50;;;6.80;99.90;;;;;;5049119;28;20461;-74
2022/05/08 05:16:07;;;;;;;6.50;3.22;;;6.80;99.90;;;;;;5047324;28;20557;-74
2022/05/08 05:18:33;;;;;;;9.80;3.25;;;6.80;99.90;;;;;;5049390;28;20044;-74
2022/05/08 05:20:58;;;;;;;12.55;4.40;;;6.90;99.90;;;;;;5046975;28;20071;-74
2022/05/08 05:23:24;;;;;;;10.15;3.22;;;6.90;99.90;;;;;;5049667;28;20487;-74
2022/05/08 05:25:50;;;;;;;8.98;3.40;;;7.00;99.90;;;;;;5047869;28;20057;-74
2022/05/08 05:28:18;;;;;;;10.70;3.90;;;7.00;99.90;;;;;;5048814;28;20037;-74
2022/05/08 05:30:44;;;;;;;16.98;3.95;;;7.00;99.90;;;;;;5048211;28;20037;-74
2022/05/08 05:33:15;;;;;;;10.48;3.67;;;7.00;99.90;;;;;;5046159;28;20029;-74
2022/05/08 05:35:44;;;;;;;7.55;3.25;;;7.10;99.90;;;;;;5047543;28;20047;-74
2022/05/08 05:38:10;;;;;;;11.45;3.85;;;7.10;99.90;;;;;;5046479;28;20044;-74
2022/05/08 05:40:35;;;;;;;10.52;3.67;;;7.20;99.90;;;;;;5044837;28;20388;-74
2022/05/08 05:43:01;;;;;;;11.15;3.72;;;7.30;99.90;;;;;;5046845;28;20044;-74
2022/05/08 05:45:27;;;;;;;10.82;4.07;;;7.40;99.90;;;;;;5053662;28;20505;-74
2022/05/08 05:47:53;;;;;;;8.82;3.55;;;7.50;99.90;;;;;;5036045;28;20072;-74
2022/05/08 05:50:25;;;;;;;10.52;3.78;;;7.60;99.90;;;;;;5052982;28;20064;-74
2022/05/08 05:52:52;;;;;;;11.80;3.40;;;7.80;99.90;;;;;;5052972;28;20096;-74
2022/05/08 05:55:18;;;;;;;10.05;3.20;;;8.00;99.90;;;;;;5051423;28;20037;-74
2022/05/08 05:57:44;;;;;;;7.53;3.50;;;8.10;99.90;;;;;;5049028;28;20052;-74
2022/05/08 06:00:14;;;;;;;8.57;3.25;;;8.30;99.90;;;;;;5046696;28;20037;-74
2022/05/08 06:02:43;;;;;;;7.90;3.40;;;8.50;99.90;;;;;;5048259;28;20082;-74
2022/05/08 06:05:10;;;;;;;12.32;3.05;;;8.60;99.90;;;;;;5050338;28;20033;-74
2022/05/08 06:07:36;;;;;;;13.35;3.15;;;8.80;99.90;;;;;;5049717;28;20037;-73
2022/05/08 06:10:05;;;;;;;9.63;2.83;;;8.90;99.90;;;;;;5053293;28;20029;-74
2022/05/08 06:12:31;;;;;;;11.57;2.97;;;9.10;99.90;;;;;;5052773;28;20076;-74
2022/05/08 06:14:57;;;;;;;11.40;3.05;;;9.30;99.90;;;;;;5052189;28;20402;-74
2022/05/08 06:17:22;;;;;;;11.02;3.15;;;9.60;99.90;;;;;;5052082;28;20124;-74
2022/05/08 06:19:48;;;;;;;12.73;2.67;;;9.60;99.90;;;;;;5035967;28;20128;-73
2022/05/08 06:22:14;;;;;;;8.23;2.55;;;9.80;99.90;;;;;;5052670;28;20037;-74
2022/05/08 06:24:39;;;;;;;13.07;2.53;;;9.90;99.90;;;;;;5051635;28;20044;-74
2022/05/08 06:27:05;;;;;;;15.65;3.53;;;10.00;99.90;;;;;;5053799;28;20045;-74
2022/05/08 06:29:32;;;;;;;9.52;2.97;;;10.10;99.90;;;;;;5067252;28;20055;-73
2022/05/08 06:31:58;;;;;;;9.30;2.55;;;10.20;99.90;;;;;;5048864;28;20127;-74
2022/05/08 06:34:24;;;;;;;13.20;3.08;;;10.10;99.90;;;;;;5048424;28;20099;-73
2022/05/08 06:36:49;;;;;;;8.60;2.80;;;10.20;99.90;;;;;;5052377;28;20052;-73
2022/05/08 06:39:15;;;;;;;13.07;2.47;;;10.20;99.90;;;;;;5052017;28;20132;-73
2022/05/08 06:41:41;;;;;;;7.50;2.30;;;10.20;99.90;;;;;;5051967;28;20521;-73
2022/05/08 06:44:07;;;;;;;8.13;2.88;;;10.20;99.90;;;;;;5033913;28;20811;-73
2022/05/08 06:46:35;;;;;;;11.32;2.50;;;10.30;99.90;;;;;;5045163;28;20073;-73
2022/05/08 06:49:02;;;;;;;9.13;2.13;;;10.30;99.90;;;;;;5048218;28;20040;-73
2022/05/08 06:51:27;;;;;;;8.75;2.00;;;10.50;99.90;;;;;;5044817;28;20068;-73
2022/05/08 06:53:53;;;;;;;8.43;1.92;;;10.60;99.90;;;;;;5045811;28;20033;-73
2022/05/08 06:56:19;;;;;;;9.20;2.25;;;10.50;99.90;;;;;;5046671;28;20555;-73
2022/05/08 07:01:34;;;;;;;;;;;10.60;99.90;;;;;;5047717;28;20168;-74
2022/05/08 07:04:03;;;;;;;8.10;1.70;;;10.80;99.90;;;;;;5044072;28;19917;-73
2022/05/08 07:06:29;;;;;;;9.65;2.15;;;10.90;99.90;;;;;;5043755;28;20033;-74
2022/05/08 07:08:55;;;;;;;10.85;2.60;;;10.90;99.90;;;;;;5045775;28;20065;-74
2022/05/08 07:11:21;;;;;;;7.65;1.70;;;11.00;99.90;;;;;;5046314;28;20086;-74
2022/05/08 07:13:47;;;;;;;8.38;1.92;;;10.80;99.90;;;;;;5045623;28;20586;-74
2022/05/08 07:16:13;;;;;;;11.23;2.00;;;11.00;99.90;;;;;;5045857;28;20055;-74
2022/05/08 07:18:39;;;;;;;8.60;1.83;;;11.40;99.90;;;;;;5029402;28;20052;-74
2022/05/08 07:21:05;;;;;;;6.95;1.80;;;11.70;99.90;;;;;;5044513;28;20124;-74
2022/05/08 07:23:32;;;;;;;8.95;2.05;;;11.90;99.90;;;;;;5045421;28;20044;-73
2022/05/08 07:25:58;;;;;;;8.57;1.70;;;12.00;99.90;;;;;;5049115;28;20041;-74
2022/05/08 07:28:24;;;;;;;7.78;2.00;;;11.90;99.90;;;;;;5048891;28;20116;-74
2022/05/08 07:30:49;;;;;;;7.75;2.13;;;11.60;99.90;;;;;;5050089;28;20515;-74
2022/05/08 07:33:16;;;;;;;11.57;1.73;;;11.40;99.90;;;;;;5050586;28;20033;-74
2022/05/08 07:38:29;;;;;;;12.25;1.90;;;11.50;99.90;;;;;;5048383;28;20044;-74
2022/05/08 07:40:56;;;;;;;7.78;2.03;;;11.90;99.90;;;;;;5050354;28;20029;-74
2022/05/08 07:43:22;;;;;;;8.27;1.98;;;11.90;99.90;;;;;;5049741;28;20083;-74
2022/05/08 07:45:48;;;;;;;9.60;1.90;;;11.70;99.90;;;;;;5065439;28;20040;-74
2022/05/08 07:48:13;;;;;;;9.18;2.10;;;11.70;99.90;;;;;;5050650;28;20033;-74
2022/05/08 07:50:39;;;;;;;11.70;2.30;;;11.90;99.90;;;;;;5046842;28;20044;-73
2022/05/08 07:53:05;;;;;;;11.48;1.90;;;12.00;99.90;;;;;;5049107;28;20040;-74
2022/05/08 07:55:32;;;;;;;8.90;1.95;;;11.90;99.90;;;;;;5043988;28;20025;-74
2022/05/08 07:57:57;;;;;;;9.07;1.95;;;11.90;99.90;;;;;;5045332;28;20124;-74
2022/05/08 08:00:23;;;;;;;9.95;2.13;;;11.90;99.90;;;;;;5049926;28;20440;-74
2022/05/08 08:02:48;;;;;;;9.90;1.80;;;12.00;99.90;;;;;;5044803;28;20108;-74
2022/05/08 08:05:14;;;;;;;10.38;2.20;;;12.20;99.90;;;;;;5048544;28;20033;-74
2022/05/08 08:07:40;;;;;;;10.18;1.95;;;12.30;99.90;;;;;;5045677;28;20042;-74
2022/05/08 08:10:06;;;;;;;9.95;2.30;;;12.60;99.90;;;;;;5048463;28;20491;-73
2022/05/08 08:12:32;;;;;;;10.20;2.20;;;13.00;99.90;;;;;;5061459;28;20037;-74
2022/05/08 08:14:59;;;;;;;12.80;2.55;;;13.20;99.90;;;;;;5043269;28;20041;-74
2022/05/08 08:17:25;;;;;;;14.93;2.78;;;13.20;99.90;;;;;;5029625;28;20123;-74
2022/05/08 08:19:51;;;;;;;12.45;2.70;;;13.10;99.90;;;;;;5044299;28;20044;-74
2022/05/08 08:22:17;;;;;;;8.23;1.85;;;13.50;99.90;;;;;;5048395;28;20177;-75
2022/05/08 08:24:42;;;;;;;8.00;1.77;;;13.40;99.90;;;;;;5047653;28;20033;-75
2022/05/08 08:27:08;;;;;;;10.02;2.10;;;13.50;99.90;;;;;;5045440;28;20040;-75
2022/05/08 08:29:34;;;;;;;10.32;1.88;;;13.80;99.90;;;;;;5044719;28;20040;-75
2022/05/08 08:31:59;;;;;;;10.95;2.70;;;13.90;99.90;;;;;;5045432;28;20501;-75
2022/05/08 08:34:26;;;;;;;10.35;2.17;;;13.90;99.90;;;;;;5045608;28;20053;-75
2022/05/08 08:36:52;;;;;;;10.77;2.35;;;14.00;99.90;;;;;;5045211;28;20051;-75
2022/05/08 08:39:18;;;;;;;11.50;1.90;;;14.00;99.90;;;;;;5044782;28;20040;-75
2022/05/08 08:41:51;;;;;;;7.05;2.03;;;14.10;99.90;;;;;;5045026;28;20087;-75
2022/05/08 08:49:53;;;;;;;11.60;2.25;;;14.50;99.90;;;;;;5042236;28;20041;-75
2022/05/08 08:52:22;;;;;;;10.93;2.10;;;14.50;99.90;;;;;;5050035;28;20454;-75
2022/05/08 08:54:47;;;;;;;8.30;2.42;;;14.60;99.90;;;;;;5047047;28;20125;-75
2022/05/08 08:57:13;;;;;;;7.07;2.28;;;14.40;99.90;;;;;;5045082;28;20510;-76
2022/05/08 08:59:39;;;;;;;9.15;2.10;;;14.30;99.90;;;;;;5045183;28;20045;-77
2022/05/08 09:02:15;;;;;;;7.78;2.30;;;13.60;99.90;;;;;;5049264;28;20069;-76
2022/05/08 09:04:41;;;;;;;11.02;2.42;;;13.30;99.90;;;;;;5044931;28;20025;-76
2022/05/08 09:07:36;;;;;;;10.00;2.20;;;13.10;99.90;;;;;;5042896;28;20078;-76
2022/05/08 09:10:18;;;;;;;10.40;1.90;;;13.30;99.90;;;;;;5045191;28;20044;-77
2022/05/08 09:13:05;;;;;;;10.55;2.17;;;13.30;99.90;;;;;;5038092;28;20056;-77
2022/05/08 09:15:38;;;;;;;10.65;1.92;;;13.70;99.90;;;;;;5061115;28;20127;-76
2022/05/08 09:18:05;;;;;;;10.05;1.77;;;14.00;99.90;;;;;;5049251;28;20086;-77
2022/05/08 09:20:36;;;;;;;7.38;1.90;;;14.00;99.90;;;;;;5032395;28;20521;-77
2022/05/08 09:23:21;;;;;;;8.30;1.85;;;14.00;99.90;;;;;;5033175;28;20395;-77
2022/05/08 09:25:48;;;;;;;10.90;2.13;;;14.10;99.90;;;;;;5037354;28;20100;-77
2022/05/08 09:28:16;;;;;;;7.50;1.92;;;13.90;99.90;;;;;;5045652;28;20068;-77
2022/05/08 09:31:00;;;;;;;9.90;2.15;;;14.10;99.90;;;;;;5044340;28;20434;-77
2022/05/08 09:33:34;;;;;;;10.50;2.38;;;14.20;99.90;;;;;;5043936;28;20079;-78
2022/05/08 09:36:02;;;;;;;8.77;2.00;;;14.40;99.90;;;;;;5044859;28;20698;-77
2022/05/08 09:38:41;;;;;;;7.72;2.28;;;14.70;99.90;;;;;;5047337;28;20048;-77
2022/05/08 09:41:08;;;;;;;10.90;2.38;;;14.10;99.90;;;;;;5045230;28;20124;-77
2022/05/08 09:43:36;;;;;;;7.97;2.03;;;13.90;99.90;;;;;;5043311;28;20044;-78
2022/05/08 09:46:04;;;;;;;8.27;2.15;;;14.00;99.90;;;;;;5048512;28;20045;-78
2022/05/08 09:48:35;;;;;;;8.27;2.00;;;14.00;99.90;;;;;;5031367;28;20092;-78
2022/05/08 09:51:07;;;;;;;9.13;2.15;;;14.20;99.90;;;;;;5029439;28;20045;-78
2022/05/08 09:53:34;;;;;;;7.57;2.10;;;14.30;99.90;;;;;;5032958;28;20095;-78
2022/05/08 09:56:02;;;;;;;9.05;2.45;;;14.30;99.90;;;;;;5032508;28;20103;-78
2022/05/08 09:58:29;;;;;;;6.70;1.85;;;14.20;99.90;;;;;;5038767;28;20056;-78
2022/05/08 10:00:56;;;;;;;11.30;2.60;;;14.00;99.90;;;;;;5052272;28;20090;-79
2022/05/08 10:03:21;;;;;;;10.50;2.92;;;13.90;99.90;;;;;;5036389;28;20495;-77
2022/05/08 10:05:48;;;;;;;10.27;2.38;;;13.90;99.90;;;;;;5036038;28;20090;-77
2022/05/08 10:08:18;;;;;;;11.18;2.15;;;14.30;99.90;;;;;;5052649;28;20028;-78
2022/05/08 10:16:45;;;;;;;10.23;2.13;;;15.00;99.90;;;;;;5052736;28;20499;-79
2022/05/08 10:19:23;;;;;;;9.98;2.20;;;15.20;99.90;;;;;;5050523;28;20128;-78
2022/05/08 10:21:57;;;;;;;10.75;2.47;;;15.00;99.90;;;;;;5039292;28;20132;-79
2022/05/08 10:24:34;;;;;;;10.35;2.42;;;15.30;99.90;;;;;;5046685;28;20125;-78
2022/05/08 10:27:16;;;;;;;7.60;1.90;;;15.50;99.90;;;;;;5051637;28;20512;-79
2022/05/08 10:29:48;;;;;;;12.95;2.30;;;15.60;99.90;;;;;;5036326;28;20546;-79
2022/05/08 10:32:34;;;;;;;9.38;1.90;;;15.50;99.80;;;;;;5053304;28;20048;-77
2022/05/08 10:35:10;;;;;;;8.65;2.60;;;15.60;99.90;;;;;;5045145;28;20120;-79
2022/05/08 10:37:38;;;;;;;13.00;2.35;;;15.40;99.90;;;;;;5027044;28;20040;-79
2022/05/08 10:40:24;;;;;;;9.95;2.65;;;15.40;99.90;;;;;;5053863;28;20044;-80
2022/05/08 10:42:58;;;;;;;7.68;2.28;;;15.30;99.90;;;;;;5053325;28;20037;-79
2022/05/08 10:45:33;;;;;;;11.38;2.63;;;15.60;99.90;;;;;;5052798;28;20525;-80
2022/05/08 10:48:08;;;;;;;8.68;2.30;;;15.80;99.90;;;;;;5061355;28;20518;-80
2022/05/08 10:50:34;;;;;;;11.57;2.72;;;15.90;99.90;;;;;;5051734;28;20052;-79
2022/05/08 10:53:00;;;;;;;12.57;2.85;;;15.90;99.90;;;;;;5045703;28;20060;-80
2022/05/08 10:55:27;;;;;;;8.82;2.00;;;15.90;99.90;;;;;;5050700;28;20040;-79
2022/05/08 10:57:53;;;;;;;9.15;2.00;;;16.00;99.90;;;;;;5046850;28;20049;-80
2022/05/08 11:00:30;;;;;;;9.88;2.30;;;16.30;99.90;;;;;;5034399;28;20126;-80
2022/05/08 11:03:00;;;;;;;11.95;2.33;;;15.80;98.80;;;;;;5054544;28;20044;-80
2022/05/08 11:05:35;;;;;;;13.20;2.70;;;16.00;99.60;;;;;;5037905;28;20052;-80
2022/05/08 11:08:10;;;;;;;9.77;2.40;;;16.20;99.90;;;;;;5054184;28;20053;-80
2022/05/08 11:10:40;;;;;;;9.07;2.30;;;16.40;99.90;;;;;;5053676;28;20051;-81
2022/05/08 11:13:14;;;;;;;9.23;2.50;;;16.50;99.60;;;;;;5033578;28;20103;-81
2022/05/08 11:15:43;;;;;;;13.18;2.70;;;16.70;99.90;;;;;;5032617;28;20045;-80
2022/05/08 11:18:18;;;;;;;10.18;2.42;;;17.00;99.90;;;;;;5046659;28;20036;-80
2022/05/08 11:20:48;;;;;;;11.55;2.42;;;17.20;99.80;;;;;;5047473;28;20071;-80
2022/05/08 11:23:19;;;;;;;8.18;2.30;;;17.40;99.90;;;;;;5048292;28;20033;-82
2022/05/08 11:26:02;;;;;;;8.75;2.03;;;17.50;99.40;;;;;;5047603;28;20045;-82
2022/05/08 11:28:29;;;;;;;9.40;2.22;;;17.60;98.80;;;;;;5047135;28;20123;-82
2022/05/08 11:30:57;;;;;;;9.85;2.38;;;17.20;97.90;;;;;;5049906;28;20273;-81
2022/05/08 11:36:25;;;;;;;9.90;2.17;;;17.20;97.20;;;;;;5047147;28;20041;-82
2022/05/08 11:38:54;;;;;;;8.32;2.00;;;17.10;97.50;;;;;;5052916;28;20507;-80
2022/05/08 11:41:31;;;;;;;11.95;2.72;;;17.00;95.90;;;;;;5052332;28;20047;-82
2022/05/08 11:43:59;;;;;;;8.75;2.10;;;17.20;97.30;;;;;;5051237;28;20086;-82
2022/05/08 11:46:36;;;;;;;10.75;2.40;;;17.30;97.10;;;;;;5050457;28;20028;-81
2022/05/08 11:49:13;;;;;;;8.00;2.20;;;17.00;94.10;;;;;;5050152;28;20040;-81
2022/05/08 11:51:41;;;;;;;7.68;2.20;;;17.40;96.40;;;;;;5050121;28;20045;-82
2022/05/08 11:54:27;;;;;;;9.93;2.17;;;17.80;96.30;;;;;;5049763;28;20072;-81
2022/05/08 11:57:13;;;;;;;8.32;2.15;;;18.20;96.60;;;;;;5044235;28;20041;-82
2022/05/08 11:59:39;;;;;;;10.00;1.85;;;18.50;95.20;;;;;;5052005;28;20458;-82
2022/05/08 12:02:05;;;;;;;7.93;2.03;;;18.60;95.20;;;;;;5050473;28;20517;-83
2022/05/08 12:04:36;;;;;;;10.10;2.35;;;18.60;94.10;;;;;;5034605;28;20045;-84
2022/05/08 12:07:12;;;;;;;14.25;2.13;;;18.50;93.50;;;;;;5051478;28;20123;-83
2022/05/08 12:09:50;;;;;;;12.85;2.40;;;18.90;93.70;;;;;;5050879;28;20049;-84
2022/05/08 12:12:33;;;;;;;9.82;2.22;;;18.90;93.20;;;;;;5035435;28;20494;-83
2022/05/08 12:15:08;;;;;;;8.95;2.10;;;18.70;93.10;;;;;;5033479;28;20498;-83
2022/05/08 12:17:39;;;;;;;10.38;2.30;;;18.30;92.60;;;;;;5052428;28;20048;-83
2022/05/08 12:20:26;;;;;;;8.30;2.13;;;18.10;91.40;;;;;;5034744;28;20051;-84
2022/05/08 12:23:06;;;;;;;9.77;2.05;;;18.50;92.00;;;;;;5051301;28;20041;-84
2022/05/08 12:25:41;;;;;;;5.50;1.80;;;18.70;92.20;;;;;;5044830;28;20037;-84
2022/05/08 12:28:08;;;;;;;8.13;1.92;;;18.60;90.90;;;;;;5042259;28;20044;-84
2022/05/08 12:30:34;;;;;;;8.68;2.00;;;19.30;91.60;;;;;;5055665;28;20053;-84
2022/05/08 12:33:00;;;;;;;7.10;2.10;;;19.50;91.60;;;;;;5060619;28;20102;-84
2022/05/08 12:35:26;;;;;;;6.45;1.80;;;19.70;91.30;;;;;;5050562;28;20402;-84
2022/05/08 12:37:52;;;;;;;7.43;2.20;;;19.90;91.30;;;;;;5034462;28;20033;-84
2022/05/08 12:40:18;;;;;;;7.03;2.00;;;19.60;90.00;;;;;;5051025;28;20048;-83
2022/05/08 12:42:44;;;;;;;10.60;2.05;;;19.90;90.30;;;;;;5034980;28;20517;-82
2022/05/08 12:45:11;;;;;;;8.75;2.13;;;20.10;90.20;;;;;;5050897;28;20106;-85
2022/05/08 12:47:37;;;;;;;7.93;2.13;;;20.20;89.90;;;;;;5051694;28;20391;-85
2022/05/08 12:50:07;;;;;;;9.60;2.20;;;20.00;87.00;;;;;;5051101;28;20047;-85
2022/05/08 12:52:35;;;;;;;9.52;2.08;;;20.20;86.70;;;;;;5068051;28;20045;-85
2022/05/08 12:55:00;;;;;;;8.70;2.25;;;20.30;87.50;;;;;;5033484;28;20128;-85
2022/05/08 13:00:11;;;;;;;8.95;2.20;;;20.40;84.00;;;;;;5050448;28;20487;-84
2022/05/08 13:02:36;;;;;;;6.43;1.92;;;19.80;85.20;;;;;;5050915;28;20041;-85
2022/05/08 13:05:02;;;;;;;7.55;1.70;;;20.20;86.00;;;;;;5051771;28;20033;-85
2022/05/08 13:07:28;;;;;;;6.65;1.80;;;20.30;85.70;;;;;;5052581;28;20491;-85
2022/05/08 13:09:53;;;;;;;7.90;2.22;;;20.50;85.50;;;;;;5050372;28;20144;-84
2022/05/08 13:12:19;;;;;;;7.70;2.00;;;20.70;85.50;;;;;;5033712;28;20037;-84
2022/05/08 13:14:44;;;;;;;9.18;2.10;;;21.00;85.00;;;;;;5049765;28;20068;-83
2022/05/08 13:17:10;;;;;;;7.10;2.00;;;20.60;83.10;;;;;;5050369;28;20045;-83
2022/05/08 13:19:36;;;;;;;9.57;1.90;;;19.40;78.30;;;;;;5050224;28;20135;-84
2022/05/08 13:22:06;;;;;;;8.55;2.00;;;19.70;82.70;;;;;;5033974;28;20055;-83
2022/05/08 13:24:33;;;;;;;4.53;1.58;;;19.90;78.30;;;;;;5049606;28;20449;-85